Time;durP1;ratioP1;P1;durP2;ratioP2;P2;SDS_P1;SDS_P2;PMS_P1;PMS_P2;Temp;Humidity;BMP_temperature;BMP_pressure;BME280_temperature;BME280_humidity;BME280_pressure;Samples;Min_cycle;Max_cycle;Signal;HPM_P1;HPM_P2
2021/11/18 00:01:24;;;;;;;33.60;12.03;;;;;;;6.46;88.57;101610.28;5023077;28;20227;-83
2021/11/18 00:03:51;;;;;;;21.67;11.23;;;;;;;6.46;88.88;101602.34;5025072;28;20278;-83
2021/11/18 00:06:18;;;;;;;24.80;10.60;;;;;;;6.48;88.18;101605.81;5026201;28;20377;-82
2021/11/18 00:08:45;;;;;;;24.27;11.00;;;;;;;6.47;88.36;101603.22;5020863;28;20230;-84
2021/11/18 00:11:15;;;;;;;25.03;10.33;;;;;;;6.47;88.55;101605.88;5027608;28;20263;-84
2021/11/18 00:13:44;;;;;;;31.17;11.43;;;;;;;6.46;88.24;101610.28;5024570;28;20199;-84
2021/11/18 00:16:11;;;;;;;27.13;10.10;;;;;;;6.43;88.32;101606.91;5023839;28;20241;-84
2021/11/18 00:18:39;;;;;;;22.30;9.90;;;;;;;6.42;88.30;101615.75;5021073;28;20720;-84
2021/11/18 00:25:08;;;;;;;23.30;9.80;;;;;;;6.38;88.17;101619.41;5019001;28;20216;-82
2021/11/18 00:27:36;;;;;;;25.50;9.93;;;;;;;6.37;88.57;101631.75;5018509;28;20719;-82
2021/11/18 00:30:03;;;;;;;23.37;11.03;;;;;;;6.34;88.87;101637.13;5022466;28;20195;-82
2021/11/18 00:32:29;;;;;;;24.87;11.37;;;;;;;6.35;88.38;101643.31;5021476;28;20206;-83
2021/11/18 00:34:56;;;;;;;25.57;10.63;;;;;;;6.35;88.43;101648.59;5027161;28;20211;-83
2021/11/18 00:37:22;;;;;;;26.97;11.27;;;;;;;6.35;88.36;101645.94;5024023;28;20752;-84
2021/11/18 00:39:49;;;;;;;32.57;11.07;;;;;;;6.34;88.57;101652.16;5025521;28;20230;-84
2021/11/18 00:42:16;;;;;;;28.60;12.03;;;;;;;6.33;88.88;101643.34;5024212;28;20211;-84
2021/11/18 00:44:44;;;;;;;27.80;11.60;;;;;;;6.31;88.50;101645.16;5016157;28;20203;-84
2021/11/18 00:47:10;;;;;;;25.60;10.77;;;;;;;6.32;88.55;101657.47;5014823;28;20243;-83
2021/11/18 00:49:37;;;;;;;22.67;10.70;;;;;;;6.32;88.75;101651.31;5025877;28;20210;-83
2021/11/18 00:52:04;;;;;;;25.97;11.67;;;;;;;6.31;88.59;101649.59;5020690;28;20574;-83
2021/11/18 00:54:31;;;;;;;25.53;11.87;;;;;;;6.30;89.12;101651.38;5019799;28;20203;-84
2021/11/18 00:56:58;;;;;;;25.57;10.73;;;;;;;6.30;89.21;101663.72;5016131;28;20230;-83
2021/11/18 00:59:25;;;;;;;25.53;10.50;;;;;;;6.29;88.84;101657.56;5020956;28;20257;-83
2021/11/18 01:01:53;;;;;;;25.70;11.83;;;;;;;6.30;89.11;101663.72;5020472;28;20229;-83
2021/11/18 01:04:21;;;;;;;31.00;12.17;;;;;;;6.28;88.63;101653.19;5020767;28;20278;-83
2021/11/18 01:06:48;;;;;;;27.70;13.00;;;;;;;6.30;88.84;101658.44;5019020;28;20218;-81
2021/11/18 01:09:15;;;;;;;29.50;12.83;;;;;;;6.30;88.96;101664.59;5023166;28;20301;-82
2021/11/18 01:11:43;;;;;;;35.37;13.00;;;;;;;6.30;89.04;101671.66;5020819;28;20211;-82
2021/11/18 01:14:13;;;;;;;33.00;12.90;;;;;;;6.31;89.52;101673.41;5022596;28;20221;-82
2021/11/18 01:16:40;;;;;;;26.03;12.07;;;;;;;6.32;89.11;101680.44;5021521;28;20623;-82
2021/11/18 01:19:09;;;;;;;25.60;11.83;;;;;;;6.34;89.39;101679.47;5022349;28;20298;-82
2021/11/18 01:21:37;;;;;;;25.53;11.63;;;;;;;6.36;89.09;101674.13;5021165;28;20294;-82
2021/11/18 01:24:05;;;;;;;35.83;12.83;;;;;;;6.37;89.52;101681.16;5020002;28;20214;-81
2021/11/18 01:26:31;;;;;;;30.87;12.00;;;;;;;6.39;89.40;101679.34;5020310;28;20237;-82
2021/11/18 01:28:59;;;;;;;24.53;11.40;;;;;;;6.40;89.69;101681.94;5020912;28;20302;-82
2021/11/18 01:31:26;;;;;;;25.97;11.37;;;;;;;6.42;89.28;101689.84;5020648;28;20207;-81
2021/11/18 01:33:53;;;;;;;29.27;11.83;;;;;;;6.43;89.46;101692.44;5019721;28;20305;-81
2021/11/18 01:36:21;;;;;;;26.27;12.30;;;;;;;6.43;89.40;101695.09;5021272;28;20233;-81
2021/11/18 01:38:48;;;;;;;26.30;11.43;;;;;;;6.44;89.24;101694.19;5020898;28;20217;-82
2021/11/18 01:41:19;;;;;;;26.00;12.43;;;;;;;6.45;89.16;101695.88;5021038;28;20234;-84
2021/11/18 01:43:48;;;;;;;27.10;12.00;;;;;;;6.45;89.56;101695.06;5020456;28;20213;-83
2021/11/18 01:46:17;;;;;;;31.17;11.83;;;;;;;6.47;89.55;101699.34;5021525;28;20233;-83
2021/11/18 01:48:46;;;;;;;23.97;10.60;;;;;;;6.48;89.38;101689.63;5021682;28;20207;-82
2021/11/18 01:51:13;;;;;;;22.80;11.23;;;;;;;6.49;89.39;101700.19;5021504;28;20680;-82
2021/11/18 01:53:43;;;;;;;31.73;11.67;;;;;;;6.50;89.49;101693.13;5020694;28;20219;-82
2021/11/18 01:56:13;;;;;;;26.00;10.47;;;;;;;6.49;89.17;101702.84;5020374;28;20242;-81
2021/11/18 01:58:42;;;;;;;27.63;11.07;;;;;;;6.50;89.14;101690.47;5021387;28;20301;-81
2021/11/18 02:01:10;;;;;;;24.63;11.70;;;;;;;6.51;89.16;101692.19;5020486;28;20237;-82
2021/11/18 02:03:38;;;;;;;33.17;11.90;;;;;;;6.51;89.17;101690.41;5021135;28;20213;-81
2021/11/18 02:06:08;;;;;;;27.20;10.90;;;;;;;6.51;89.55;101689.56;5019633;28;20230;-82
2021/11/18 02:08:35;;;;;;;22.20;10.57;;;;;;;6.53;89.23;101703.63;5020710;28;20211;-82
2021/11/18 02:11:08;;;;;;;26.83;11.33;;;;;;;6.51;89.11;101700.13;5016270;28;20214;-82
2021/11/18 02:13:35;;;;;;;29.63;11.13;;;;;;;6.51;89.37;101694.84;5017589;28;20207;-82
2021/11/18 02:16:05;;;;;;;27.87;11.07;;;;;;;6.52;89.30;101688.66;5024455;28;20717;-82
2021/11/18 02:18:34;;;;;;;23.50;10.60;;;;;;;6.51;88.86;101689.56;5021890;28;20210;-82
2021/11/18 02:21:05;;;;;;;29.50;11.10;;;;;;;6.51;88.92;101692.19;5022274;28;20231;-82
2021/11/18 02:23:36;;;;;;;26.20;11.43;;;;;;;6.50;88.89;101683.41;5018724;28;20681;-82
2021/11/18 02:26:04;;;;;;;25.47;10.20;;;;;;;6.50;89.18;101690.47;5020636;28;20223;-82
2021/11/18 02:28:34;;;;;;;24.77;10.43;;;;;;;6.49;89.00;101688.72;5020444;28;20211;-81
2021/11/18 02:31:02;;;;;;;29.40;11.03;;;;;;;6.50;88.60;101687.81;5020387;28;20279;-82
2021/11/18 02:33:30;;;;;;;27.63;10.30;;;;;;;6.48;88.67;101695.81;5020682;28;20231;-82
2021/11/18 02:35:58;;;;;;;26.03;11.13;;;;;;;6.49;88.35;101692.25;5020690;28;20213;-82
2021/11/18 02:38:26;;;;;;;31.17;11.63;;;;;;;6.49;88.83;101701.97;5020637;28;20217;-82
2021/11/18 02:40:53;;;;;;;27.83;11.33;;;;;;;6.49;89.20;101700.19;5021145;28;20240;-82
2021/11/18 02:43:19;;;;;;;26.10;10.47;;;;;;;6.49;88.85;101705.47;5020401;28;20657;-82
2021/11/18 02:45:48;;;;;;;24.97;11.30;;;;;;;6.50;89.66;101704.56;5019563;28;20216;-82
2021/11/18 02:48:15;;;;;;;25.23;10.27;;;;;;;6.50;89.41;101695.75;5020664;28;20217;-82
2021/11/18 02:50:49;;;;;;;25.17;10.70;;;;;;;6.51;88.78;101689.56;5020567;28;20211;-82
2021/11/18 02:53:15;;;;;;;25.07;10.60;;;;;;;6.53;88.82;101708.91;5021685;28;20274;-81
2021/11/18 02:55:46;;;;;;;24.70;11.13;;;;;;;6.52;89.01;101713.34;5021115;28;20222;-82
2021/11/18 02:58:13;;;;;;;24.33;9.97;;;;;;;6.53;88.58;101720.34;5021324;28;20210;-82
2021/11/18 03:00:44;;;;;;;22.90;10.53;;;;;;;6.53;88.58;101724.78;5020836;28;20245;-81
2021/11/18 03:03:12;;;;;;;24.00;10.80;;;;;;;6.53;89.23;101732.72;5019768;28;20207;-81
2021/11/18 03:05:38;;;;;;;26.60;11.67;;;;;;;6.53;88.63;101730.09;5021379;28;20251;-81
2021/11/18 03:08:05;;;;;;;27.03;10.90;;;;;;;6.54;89.36;101742.41;5020796;28;20229;-82
2021/11/18 03:10:33;;;;;;;30.33;11.87;;;;;;;6.54;89.35;101732.69;5027093;28;20229;-82
2021/11/18 03:13:00;;;;;;;31.57;11.70;;;;;;;6.54;89.09;101724.75;5021160;28;20254;-82
2021/11/18 03:15:28;;;;;;;26.37;10.93;;;;;;;6.53;88.79;101723.00;5020938;28;20203;-82
2021/11/18 03:17:54;;;;;;;32.13;11.93;;;;;;;6.53;88.86;101715.06;5022030;28;20586;-82
2021/11/18 03:20:23;;;;;;;23.57;12.33;;;;;;;6.53;89.04;101724.78;5021102;28;20211;-82
2021/11/18 03:22:50;;;;;;;23.83;11.30;;;;;;;6.53;88.96;101717.72;5021237;28;20267;-82
2021/11/18 03:25:19;;;;;;;24.07;11.37;;;;;;;6.55;88.81;101717.66;5021182;28;20229;-82
2021/11/18 03:27:46;;;;;;;27.70;11.57;;;;;;;6.54;89.34;101715.94;5022661;28;20721;-82
2021/11/18 03:30:22;;;;;;;30.23;11.90;;;;;;;6.54;88.82;101710.63;5021388;28;20217;-82
2021/11/18 03:32:49;;;;;;;35.03;11.83;;;;;;;6.54;88.94;101706.22;5012573;28;20242;-81
2021/11/18 03:35:16;;;;;;;24.60;10.90;;;;;;;6.55;89.43;101713.25;5022541;28;20207;-81
2021/11/18 03:37:43;;;;;;;31.57;12.73;;;;;;;6.56;89.23;101714.13;5020926;28;20238;-82
2021/11/18 03:40:11;;;;;;;25.53;11.10;;;;;;;6.57;89.15;101713.19;5022965;28;20210;-82
2021/11/18 03:42:37;;;;;;;24.80;11.80;;;;;;;6.58;89.52;101712.28;5012020;28;20234;-82
2021/11/18 03:45:04;;;;;;;27.57;11.23;;;;;;;6.59;89.15;101704.31;5024066;28;20194;-82
2021/11/18 03:47:32;;;;;;;24.97;11.23;;;;;;;6.62;89.77;101708.66;5023480;28;20234;-84
2021/11/18 03:49:59;;;;;;;25.37;11.20;;;;;;;6.61;88.93;101721.00;5023476;28;20210;-83
2021/11/18 03:52:26;;;;;;;26.47;10.73;;;;;;;6.63;88.98;101710.34;5024393;28;20211;-83
2021/11/18 03:54:53;;;;;;;37.03;12.37;;;;;;;6.64;89.32;101714.72;5025099;28;20221;-83
2021/11/18 03:57:20;;;;;;;25.47;11.03;;;;;;;6.64;89.64;101706.78;5024338;28;20273;-83
2021/11/18 03:59:49;;;;;;;31.13;11.40;;;;;;;6.67;89.83;101704.06;5024171;28;20214;-83
2021/11/18 04:02:17;;;;;;;22.93;10.77;;;;;;;6.69;89.53;101710.19;5023954;28;20627;-83
2021/11/18 04:04:51;;;;;;;34.03;13.20;;;;;;;6.73;89.44;101710.94;5010738;28;20221;-84
2021/11/18 04:07:18;;;;;;;34.27;11.67;;;;;;;6.72;89.37;101715.38;5023094;28;20231;-84
2021/11/18 04:09:45;;;;;;;31.70;13.57;;;;;;;6.73;89.57;101719.78;5022645;28;20241;-84
2021/11/18 04:12:14;;;;;;;21.27;11.00;;;;;;;6.75;89.29;101725.88;5020930;28;20206;-84
2021/11/18 04:14:40;;;;;;;28.53;12.10;;;;;;;6.76;89.53;101721.47;5020282;28;20222;-83
2021/11/18 04:17:08;;;;;;;24.77;11.77;;;;;;;6.76;89.41;101719.69;5020257;28;20586;-83
2021/11/18 04:19:34;;;;;;;30.40;12.37;;;;;;;6.77;89.47;101723.19;5021819;28;20301;-84
2021/11/18 04:22:04;;;;;;;34.37;12.80;;;;;;;6.80;89.62;101718.69;5021258;28;20230;-84
2021/11/18 04:24:33;;;;;;;32.00;12.57;;;;;;;6.82;89.85;101721.25;5022185;28;20297;-84
2021/11/18 04:27:00;;;;;;;26.87;13.07;;;;;;;6.82;89.55;101721.25;5021592;28;20223;-85
2021/11/18 04:29:30;;;;;;;29.93;12.03;;;;;;;6.83;89.59;101723.84;5022613;28;20270;-84
2021/11/18 04:31:58;;;;;;;32.97;12.77;;;;;;;6.83;89.93;101718.56;5021958;28;20632;-83
2021/11/18 04:34:25;;;;;;;31.30;12.97;;;;;;;6.85;89.79;101721.16;5022053;28;20206;-82
2021/11/18 04:36:52;;;;;;;32.00;14.20;;;;;;;6.86;90.19;101717.59;5021810;28;20229;-82
2021/11/18 04:39:20;;;;;;;31.90;13.63;;;;;;;6.87;89.82;101722.84;5015553;28;20212;-83
2021/11/18 04:41:46;;;;;;;33.63;13.83;;;;;;;6.88;89.35;101719.28;5013099;28;20225;-83
2021/11/18 04:44:13;;;;;;;29.43;12.27;;;;;;;6.89;89.24;101720.16;5017708;28;20217;-83
2021/11/18 04:46:40;;;;;;;30.63;12.60;;;;;;;6.92;89.92;101722.72;5017117;28;20238;-84
2021/11/18 04:49:07;;;;;;;30.50;12.47;;;;;;;6.89;89.84;101715.72;5018546;28;20207;-84
2021/11/18 04:51:35;;;;;;;29.77;12.80;;;;;;;6.90;89.94;101728.06;5016584;28;20199;-84
2021/11/18 04:54:02;;;;;;;29.00;13.27;;;;;;;6.90;90.37;101730.72;5017125;28;20210;-83
2021/11/18 04:56:31;;;;;;;41.20;13.53;;;;;;;6.91;89.43;101735.09;5018714;28;20237;-82
2021/11/18 04:58:59;;;;;;;25.00;13.77;;;;;;;6.91;90.06;101734.22;5021387;28;20217;-83
2021/11/18 05:01:26;;;;;;;32.43;15.57;;;;;;;6.90;89.84;101728.06;5019163;28;20258;-83
2021/11/18 05:03:53;;;;;;;32.80;14.50;;;;;;;6.91;90.03;101736.88;5021170;28;20203;-83
2021/11/18 05:06:21;;;;;;;40.43;16.90;;;;;;;6.91;89.81;101734.22;5020037;28;20229;-83
2021/11/18 05:08:48;;;;;;;26.37;13.40;;;;;;;6.92;89.67;101733.31;5022744;28;20209;-82
2021/11/18 05:11:15;;;;;;;27.17;13.50;;;;;;;6.92;90.17;101731.53;5019712;28;20210;-83
2021/11/18 05:13:43;;;;;;;31.17;14.03;;;;;;;6.91;90.11;101726.28;5021754;28;20203;-82
2021/11/18 05:16:12;;;;;;;31.93;13.73;;;;;;;6.92;90.25;101739.47;5018507;28;20237;-82
2021/11/18 05:18:39;;;;;;;30.50;14.37;;;;;;;6.94;90.15;101736.78;5021184;28;20207;-82
2021/11/18 05:21:06;;;;;;;33.93;13.93;;;;;;;6.95;90.16;101747.34;5019417;28;20206;-82
2021/11/18 05:23:34;;;;;;;33.33;15.13;;;;;;;6.95;89.91;101744.69;5019772;28;20211;-81
2021/11/18 05:26:01;;;;;;;26.67;14.03;;;;;;;6.97;89.52;101753.44;5019315;28;20207;-81
2021/11/18 05:28:28;;;;;;;30.73;14.03;;;;;;;6.99;89.93;101755.19;5020135;28;20669;-82
2021/11/18 05:30:56;;;;;;;33.47;14.30;;;;;;;7.00;89.93;101754.25;5018015;28;20222;-82
2021/11/18 05:33:26;;;;;;;39.57;15.87;;;;;;;6.99;90.24;101752.53;5018102;28;20207;-82
2021/11/18 05:35:54;;;;;;;31.10;15.53;;;;;;;6.99;89.54;101753.38;5018121;28;20268;-82
2021/11/18 05:38:22;;;;;;;26.30;13.90;;;;;;;7.00;89.95;101755.09;5020348;28;20214;-83
2021/11/18 05:40:49;;;;;;;34.17;16.00;;;;;;;7.02;89.47;101760.34;5021151;28;20213;-82
2021/11/18 05:43:16;;;;;;;38.43;17.13;;;;;;;7.02;90.25;101757.72;5022552;28;20222;-82
2021/11/18 05:45:43;;;;;;;36.43;16.70;;;;;;;7.01;90.01;101754.19;5021412;28;20306;-81
2021/11/18 05:48:13;;;;;;;37.50;17.13;;;;;;;7.01;89.60;101756.84;5022004;28;20210;-83
2021/11/18 05:50:44;;;;;;;42.93;18.40;;;;;;;7.03;89.93;101762.09;5020537;28;20217;-83
2021/11/18 05:53:11;;;;;;;35.97;17.30;;;;;;;7.02;89.28;101760.34;5024618;28;20209;-83
2021/11/18 05:55:38;;;;;;;39.33;18.30;;;;;;;7.02;89.73;101765.66;5023808;28;20206;-83
2021/11/18 05:58:05;;;;;;;42.07;17.83;;;;;;;7.02;89.99;101768.31;5021148;28;20688;-84
2021/11/18 06:00:32;;;;;;;40.53;18.97;;;;;;;7.01;89.82;101761.28;5024522;28;20214;-81
2021/11/18 06:02:59;;;;;;;37.53;17.67;;;;;;;7.02;90.02;101760.34;5019790;28;20218;-82
2021/11/18 06:05:29;;;;;;;46.00;17.87;;;;;;;7.03;90.17;101775.34;5020769;28;20213;-83
2021/11/18 06:07:56;;;;;;;35.13;18.37;;;;;;;7.02;89.41;101770.97;5021396;28;20237;-83
2021/11/18 06:10:26;;;;;;;41.07;18.80;;;;;;;7.02;89.98;101769.16;5019476;28;20202;-82
2021/11/18 06:12:52;;;;;;;39.43;18.53;;;;;;;7.02;89.88;101770.97;5015388;28;20203;-82
2021/11/18 06:15:19;;;;;;;40.17;18.83;;;;;;;7.02;90.27;101785.06;5022213;28;20202;-82
2021/11/18 06:17:46;;;;;;;34.03;17.83;;;;;;;7.04;89.74;101779.72;5015482;28;20238;-82
2021/11/18 06:20:14;;;;;;;42.00;20.47;;;;;;;7.03;90.29;101789.44;5018214;28;20680;-81
2021/11/18 06:22:43;;;;;;;34.50;19.47;;;;;;;7.02;90.09;101786.84;5017641;28;20227;-81
2021/11/18 06:25:14;;;;;;;34.50;17.37;;;;;;;7.03;89.87;101783.28;5020238;28;20213;-81
2021/11/18 06:27:43;;;;;;;38.00;19.13;;;;;;;7.02;90.13;101790.38;5014032;28;20230;-81
2021/11/18 06:30:12;;;;;;;45.10;18.57;;;;;;;7.02;90.17;101781.56;5017615;28;20213;-80
2021/11/18 06:32:39;;;;;;;41.77;20.27;;;;;;;7.02;89.62;101779.78;5016836;28;20458;-82
2021/11/18 06:35:07;;;;;;;42.60;20.30;;;;;;;7.03;90.14;101784.16;5017624;28;20203;-81
2021/11/18 06:37:33;;;;;;;41.70;19.77;;;;;;;7.03;90.20;101794.75;5007418;28;20233;-81
2021/11/18 06:40:01;;;;;;;41.97;19.77;;;;;;;7.03;89.90;101794.75;5011451;28;20206;-82
2021/11/18 06:42:29;;;;;;;41.30;20.57;;;;;;;7.03;90.16;101794.75;5014871;28;20230;-82
2021/11/18 06:44:56;;;;;;;39.97;20.37;;;;;;;7.04;90.06;101795.63;5016716;28;20215;-81
2021/11/18 06:47:22;;;;;;;36.67;19.67;;;;;;;7.03;90.59;101789.44;5016726;28;20652;-82
2021/11/18 06:49:49;;;;;;;40.30;19.73;;;;;;;7.05;90.38;101784.09;5016684;28;20687;-81
2021/11/18 06:52:17;;;;;;;44.07;19.37;;;;;;;7.05;89.83;101777.03;5017252;28;20581;-81
2021/11/18 06:54:45;;;;;;;36.13;18.20;;;;;;;7.07;89.81;101777.84;5018371;28;20222;-82
2021/11/18 06:57:13;;;;;;;39.37;18.77;;;;;;;7.09;90.19;101783.09;5017639;28;20227;-81
2021/11/18 06:59:40;;;;;;;38.97;19.57;;;;;;;7.11;90.18;101786.59;5017779;28;20203;-81
2021/11/18 07:02:07;;;;;;;39.53;18.83;;;;;;;7.12;90.16;101781.25;5017855;28;20229;-81
2021/11/18 07:04:34;;;;;;;31.47;17.40;;;;;;;7.13;89.81;101777.69;5017552;28;20217;-81
2021/11/18 07:07:00;;;;;;;35.53;19.17;;;;;;;7.16;90.47;101782.03;5016478;28;20231;-81
2021/11/18 07:09:27;;;;;;;38.63;18.50;;;;;;;7.17;90.64;101786.38;5018865;28;20217;-82
2021/11/18 07:11:53;;;;;;;36.67;18.70;;;;;;;7.16;90.33;101784.66;5018082;28;20241;-82
2021/11/18 07:14:21;;;;;;;41.37;18.77;;;;;;;7.17;90.64;101797.84;5019984;28;20211;-81
2021/11/18 07:16:48;;;;;;;39.17;19.70;;;;;;;7.19;90.26;101805.75;5022145;28;20253;-81
2021/11/18 07:19:15;;;;;;;39.93;19.27;;;;;;;7.20;89.88;101797.75;5022407;28;20220;-81
2021/11/18 07:21:41;;;;;;;42.70;20.30;;;;;;;7.21;90.43;101801.25;5012008;28;20241;-82
2021/11/18 07:24:08;;;;;;;44.47;19.43;;;;;;;7.22;90.53;101805.66;5022237;28;20230;-83
2021/11/18 07:26:37;;;;;;;38.60;19.73;;;;;;;7.24;90.06;101815.28;5022823;28;20226;-80
2021/11/18 07:29:05;;;;;;;38.50;19.60;;;;;;;7.26;90.62;101821.41;5023441;28;20214;-81
2021/11/18 07:31:33;;;;;;;41.53;21.03;;;;;;;7.28;90.25;101819.59;5019554;28;20358;-81
2021/11/18 07:33:59;;;;;;;43.60;20.70;;;;;;;7.29;90.10;101815.16;5022642;28;20293;-80
2021/11/18 07:36:26;;;;;;;46.93;21.70;;;;;;;7.30;90.00;101823.06;5022090;28;20325;-80
2021/11/18 07:38:52;;;;;;;49.17;22.50;;;;;;;7.33;89.98;101827.41;5023368;28;20245;-81
2021/11/18 07:41:20;;;;;;;40.83;20.53;;;;;;;7.34;90.05;101820.31;5022952;28;20214;-80
2021/11/18 07:43:48;;;;;;;44.97;20.87;;;;;;;7.35;90.47;101833.50;5021796;28;20230;-80
2021/11/18 07:46:16;;;;;;;40.10;19.63;;;;;;;7.37;90.05;101836.09;5022568;28;20313;-80
2021/11/18 07:48:46;;;;;;;44.33;21.53;;;;;;;7.39;89.91;101851.03;5022005;28;20210;-80
2021/11/18 07:51:16;;;;;;;46.10;20.00;;;;;;;7.41;89.92;101849.22;5022745;28;20210;-80
2021/11/18 07:53:43;;;;;;;44.27;20.60;;;;;;;7.44;90.32;101849.13;5022351;28;20207;-81
2021/11/18 07:56:11;;;;;;;44.13;21.23;;;;;;;7.45;90.69;101850.88;5022695;28;20421;-80
2021/11/18 07:58:38;;;;;;;46.70;20.83;;;;;;;7.49;90.10;101854.28;5032762;28;20211;-81
2021/11/18 08:01:06;;;;;;;49.80;21.80;;;;;;;7.49;90.50;101854.28;5021203;28;20218;-80
2021/11/18 08:03:33;;;;;;;45.80;21.77;;;;;;;7.52;89.80;101856.84;5018789;28;20231;-80
2021/11/18 08:06:03;;;;;;;47.57;23.77;;;;;;;7.56;89.78;101863.75;5021911;28;20214;-81
2021/11/18 08:08:30;;;;;;;52.37;23.20;;;;;;;7.57;90.30;101861.06;5021285;28;20215;-81
2021/11/18 08:10:56;;;;;;;43.90;22.37;;;;;;;7.60;90.20;101855.69;5020999;28;20652;-80
2021/11/18 08:13:23;;;;;;;48.07;21.80;;;;;;;7.60;89.75;101860.09;5021503;28;20209;-81
2021/11/18 08:15:50;;;;;;;47.77;21.63;;;;;;;7.63;90.58;101863.53;5020506;28;20217;-81
2021/11/18 08:18:17;;;;;;;43.57;19.87;;;;;;;7.66;90.06;101866.09;5021352;28;20266;-80
2021/11/18 08:20:43;;;;;;;49.07;21.83;;;;;;;7.67;89.83;101856.34;5020616;28;20218;-81
2021/11/18 08:23:12;;;;;;;46.33;20.87;;;;;;;7.69;90.07;101845.72;5020631;28;20230;-81
2021/11/18 08:25:38;;;;;;;43.73;20.50;;;;;;;7.72;90.03;101848.22;5021409;28;20211;-81
2021/11/18 08:28:08;;;;;;;41.80;19.93;;;;;;;7.73;89.56;101848.19;5019224;28;20260;-80
2021/11/18 08:30:36;;;;;;;41.60;20.33;;;;;;;7.73;89.59;101845.53;5020530;28;20218;-80
2021/11/18 08:33:06;;;;;;;43.43;17.67;;;;;;;7.72;89.40;101845.56;5019745;28;20310;-80
2021/11/18 08:35:35;;;;;;;37.80;17.87;;;;;;;7.76;89.35;101839.25;5020947;28;20218;-80
2021/11/18 08:38:03;;;;;;;43.60;18.63;;;;;;;7.76;89.81;101842.78;5019679;28;20330;-80
2021/11/18 08:40:32;;;;;;;38.13;16.80;;;;;;;7.78;88.86;101835.66;5020467;28;20218;-81
2021/11/18 08:42:59;;;;;;;39.10;18.47;;;;;;;7.76;88.90;101833.97;5018791;28;20226;-81
2021/11/18 08:45:26;;;;;;;37.70;19.07;;;;;;;7.76;89.16;101837.47;5020538;28;20217;-81
2021/11/18 08:47:52;;;;;;;43.87;17.67;;;;;;;7.77;88.83;101848.97;5019724;28;20732;-80
2021/11/18 08:50:22;;;;;;;40.00;18.20;;;;;;;7.79;88.82;101850.66;5019038;28;20217;-81
2021/11/18 08:52:50;;;;;;;39.43;18.23;;;;;;;7.81;88.99;101858.56;5019187;28;20657;-81
2021/11/18 08:55:21;;;;;;;41.07;18.90;;;;;;;7.85;88.48;101870.81;5019650;28;20213;-81
2021/11/18 08:57:50;;;;;;;33.30;16.90;;;;;;;7.91;88.61;101859.97;5018807;28;20236;-81
2021/11/18 09:00:20;;;;;;;45.90;19.07;;;;;;;7.93;88.77;101853.72;5019996;28;20683;-80
2021/11/18 09:02:47;;;;;;;41.63;17.60;;;;;;;7.99;88.32;101842.91;5019490;28;20222;-80
2021/11/18 09:05:14;;;;;;;34.53;17.87;;;;;;;8.07;89.08;101841.75;5018859;28;20224;-80
2021/11/18 09:07:41;;;;;;;38.83;18.53;;;;;;;8.10;88.19;101839.88;5012329;28;20441;-81
2021/11/18 09:10:11;;;;;;;38.30;17.50;;;;;;;8.15;88.04;101840.59;5019468;28;20233;-80
2021/11/18 09:12:38;;;;;;;35.70;16.80;;;;;;;8.23;88.64;101851.81;5017845;28;20238;-81
2021/11/18 09:15:07;;;;;;;37.70;16.90;;;;;;;8.27;88.32;101848.13;5019083;28;20223;-80
2021/11/18 09:17:34;;;;;;;40.57;17.37;;;;;;;8.29;88.75;101856.03;5019275;28;20622;-80
2021/11/18 09:20:00;;;;;;;34.43;16.63;;;;;;;8.31;88.53;101856.84;5019380;28;20298;-80
2021/11/18 09:22:27;;;;;;;34.80;16.07;;;;;;;8.35;88.09;101854.06;5018995;28;20206;-80
2021/11/18 09:24:57;;;;;;;36.67;15.10;;;;;;;8.39;88.09;101851.31;5012971;28;20219;-80
2021/11/18 09:27:28;;;;;;;39.53;16.70;;;;;;;8.41;87.97;101852.13;5019417;28;20234;-81
2021/11/18 09:29:56;;;;;;;31.67;15.60;;;;;;;8.44;87.63;101852.00;5019767;28;20206;-80
2021/11/18 09:32:28;;;;;;;25.67;13.93;;;;;;;8.46;87.19;101858.13;5019371;28;20241;-80
2021/11/18 09:34:55;;;;;;;29.87;15.23;;;;;;;8.50;87.63;101860.63;5019990;28;20210;-80
2021/11/18 09:37:22;;;;;;;34.30;16.97;;;;;;;8.53;87.10;101867.63;5018610;28;20235;-81
2021/11/18 09:39:48;;;;;;;36.47;17.10;;;;;;;8.52;86.80;101874.72;5018924;28;20225;-81
2021/11/18 09:42:17;;;;;;;34.23;15.07;;;;;;;8.55;86.57;101884.38;5019081;28;20297;-81
2021/11/18 09:45:02;;;;;;;38.30;17.10;;;;;;;8.55;86.53;101881.72;5019163;28;20219;-81
2021/11/18 09:48:09;;;;;;;39.87;17.13;;;;;;;8.59;87.15;101878.91;5014923;28;20241;-81
2021/11/18 09:50:46;;;;;;;39.17;17.33;;;;;;;8.64;86.22;101884.03;5019323;28;20211;-80
2021/11/18 09:53:23;;;;;;;34.83;17.43;;;;;;;8.68;86.85;101878.56;5018235;28;20204;-81
2021/11/18 09:55:57;;;;;;;40.00;23.33;;;;;;;8.72;85.82;101887.28;5019530;28;20210;-80
2021/11/18 09:58:30;;;;;;;45.43;22.27;;;;;;;8.74;86.37;101888.09;5018168;28;20226;-80
2021/11/18 10:01:06;;;;;;;43.20;20.23;;;;;;;8.74;86.44;101873.97;5019279;28;20221;-81
2021/11/18 10:03:37;;;;;;;42.37;19.97;;;;;;;8.76;86.42;101870.31;5019544;28;20218;-81
2021/11/18 10:06:27;;;;;;;40.73;19.03;;;;;;;8.80;86.24;101876.38;5010619;28;20238;-81
2021/11/18 10:09:05;;;;;;;45.57;20.73;;;;;;;8.77;85.88;101868.53;5014609;28;20690;-81
2021/11/18 10:11:55;;;;;;;46.73;20.30;;;;;;;8.79;85.34;101864.88;5018611;28;20214;-80
2021/11/18 10:14:47;;;;;;;41.63;20.63;;;;;;;8.84;85.71;101867.38;5018710;28;20211;-80
2021/11/18 10:17:22;;;;;;;40.53;22.50;;;;;;;8.85;85.64;101877.94;5017991;28;20243;-80
2021/11/18 10:19:51;;;;;;;40.70;20.87;;;;;;;8.86;85.82;101889.44;5018429;28;20221;-80
2021/11/18 10:22:21;;;;;;;40.13;20.60;;;;;;;8.89;85.12;101870.72;5018174;28;20210;-80
2021/11/18 10:24:51;;;;;;;45.33;22.10;;;;;;;8.89;85.54;101874.25;5018138;28;20715;-80
2021/11/18 10:27:21;;;;;;;47.27;21.13;;;;;;;8.90;84.97;101869.81;5018090;28;20234;-80
2021/11/18 10:30:11;;;;;;;44.13;20.63;;;;;;;8.93;85.38;101870.56;5015885;28;20207;-80
2021/11/18 10:32:53;;;;;;;40.33;21.20;;;;;;;8.93;85.34;101853.75;5013262;28;20210;-80
2021/11/18 10:35:28;;;;;;;40.53;19.17;;;;;;;8.96;84.93;101870.44;5008948;28;20230;-81
2021/11/18 10:38:13;;;;;;;39.60;19.83;;;;;;;8.97;84.44;101860.66;5018789;28;20245;-80
2021/11/18 10:40:56;;;;;;;46.53;23.30;;;;;;;8.99;84.69;101857.03;5017862;28;20199;-81
2021/11/18 10:43:23;;;;;;;40.20;21.53;;;;;;;9.01;84.86;101855.19;5017529;28;20305;-80
2021/11/18 10:45:52;;;;;;;36.67;17.83;;;;;;;9.08;84.90;101847.00;5017349;28;20215;-80
2021/11/18 10:48:22;;;;;;;41.70;18.70;;;;;;;9.09;84.21;101849.59;5019034;28;20221;-80
2021/11/18 10:50:53;;;;;;;34.37;17.97;;;;;;;9.09;83.57;101848.72;5021342;28;20213;-80
2021/11/18 10:53:23;;;;;;;37.20;16.80;;;;;;;9.07;83.77;101850.59;5021179;28;20275;-80
2021/11/18 10:56:01;;;;;;;35.57;17.63;;;;;;;9.09;84.36;101849.59;5022381;28;20211;-80
2021/11/18 10:58:34;;;;;;;42.80;19.37;;;;;;;9.13;83.67;101863.66;5008732;28;20669;-80
2021/11/18 11:01:04;;;;;;;38.43;18.40;;;;;;;9.14;84.04;101858.25;5022258;28;20217;-80
2021/11/18 11:03:39;;;;;;;37.90;19.00;;;;;;;9.18;83.52;101851.03;5018799;28;20276;-81
2021/11/18 11:06:20;;;;;;;43.80;19.23;;;;;;;9.21;83.22;101848.25;5020907;28;20230;-81
2021/11/18 11:08:51;;;;;;;37.77;17.37;;;;;;;9.21;83.65;101835.84;5021555;28;20247;-81
2021/11/18 11:11:48;;;;;;;36.60;19.23;;;;;;;9.23;83.39;101847.28;5021083;28;20711;-81
2021/11/18 11:14:32;;;;;;;36.70;18.23;;;;;;;9.24;83.05;101837.50;5008806;28;20213;-80
2021/11/18 11:17:16;;;;;;;38.13;18.60;;;;;;;9.23;83.17;101815.38;5023089;28;20256;-80
2021/11/18 11:19:47;;;;;;;35.40;17.87;;;;;;;9.28;82.99;101815.22;5023452;28;20301;-80
2021/11/18 11:22:19;;;;;;;35.77;16.87;;;;;;;9.32;83.01;101814.13;5025417;28;20194;-81
2021/11/18 11:25:16;;;;;;;32.90;15.83;;;;;;;9.41;82.79;101813.78;5028149;28;20242;-80
2021/11/18 11:28:20;;;;;;;37.17;16.50;;;;;;;9.50;82.94;101828.47;5022592;28;20713;-81
2021/11/18 11:30:51;;;;;;;35.57;17.83;;;;;;;9.53;82.57;101821.25;5021913;28;20202;-82